createdAt,value
2023-05-23T00:00:11.636Z,74.11
2023-05-23T00:02:45.217Z,74.25
2023-05-23T00:05:15.722Z,74.23
2023-05-23T00:08:03.323Z,74.03
2023-05-23T00:10:34.055Z,74.38
2023-05-23T00:13:02.900Z,73.66
2023-05-23T00:15:38.605Z,73.85
2023-05-23T00:18:09.124Z,74.11
2023-05-23T00:20:41.030Z,74.03
2023-05-23T00:23:18.877Z,74.07
2023-05-23T00:25:53.262Z,74.33
2023-05-23T00:28:39.199Z,74.10
2023-05-23T00:31:10.552Z,74.23
2023-05-23T00:33:39.353Z,74.00
2023-05-23T00:36:09.351Z,74.23
2023-05-23T00:38:38.156Z,73.76
2023-05-23T00:41:07.039Z,73.28
2023-05-23T00:43:37.817Z,73.58
2023-05-23T00:46:07.262Z,73.75
2023-05-23T00:48:40.008Z,73.94
2023-05-23T00:51:15.900Z,74.19
2023-05-23T00:53:45.769Z,74.27
2023-05-23T00:56:14.902Z,74.22
2023-05-23T00:58:44.740Z,74.67
2023-05-23T01:01:14.051Z,74.76
2023-05-23T01:03:45.905Z,74.64
2023-05-23T01:06:19.373Z,74.65
2023-05-23T01:08:54.237Z,74.35
2023-05-23T01:11:31.876Z,74.09
2023-05-23T01:14:07.128Z,74.25
2023-05-23T01:16:43.946Z,74.26
2023-05-23T01:19:30.406Z,74.07
2023-05-23T01:22:08.072Z,74.14
2023-05-23T01:24:47.895Z,74.28
2023-05-23T01:27:31.255Z,74.10
2023-05-23T01:30:03.622Z,74.30
2023-05-23T01:32:33.899Z,74.00
2023-05-23T01:35:05.863Z,74.03
2023-05-23T01:37:35.535Z,73.91
2023-05-23T01:40:10.081Z,74.22
2023-05-23T01:42:39.345Z,74.40
2023-05-23T01:45:11.418Z,74.37
2023-05-23T01:47:42.361Z,74.30
2023-05-23T01:50:14.002Z,74.13
2023-05-23T01:52:44.212Z,74.34
2023-05-23T01:55:23.023Z,74.06
2023-05-23T01:57:53.474Z,74.27
2023-05-23T02:00:33.695Z,74.05
2023-05-23T02:03:02.902Z,74.70
2023-05-23T02:05:32.716Z,75.21
2023-05-23T02:08:03.868Z,75.12
2023-05-23T02:10:35.858Z,75.10
2023-05-23T02:13:16.844Z,74.97
2023-05-23T02:15:51.127Z,74.51
2023-05-23T02:18:21.379Z,74.57
2023-05-23T02:20:54.383Z,74.52
2023-05-23T02:23:24.298Z,74.35
2023-05-23T02:25:56.814Z,74.21
2023-05-23T02:28:26.647Z,74.09
2023-05-23T02:31:01.306Z,73.54
2023-05-23T02:33:31.368Z,73.88
2023-05-23T02:36:07.138Z,73.86
2023-05-23T02:38:37.036Z,73.75
2023-05-23T02:41:10.929Z,73.84
2023-05-23T02:43:40.740Z,74.05
2023-05-23T02:46:11.063Z,73.92
2023-05-23T02:48:40.829Z,73.64
2023-05-23T02:51:19.657Z,73.62
2023-05-23T02:53:50.349Z,73.95
2023-05-23T02:56:19.274Z,73.97
2023-05-23T02:58:53.513Z,73.94
2023-05-23T03:01:23.926Z,74.06
2023-05-23T03:04:06.656Z,73.52
2023-05-23T03:06:37.201Z,73.55
2023-05-23T03:09:12.821Z,73.03
2023-05-23T03:11:43.018Z,73.09
2023-05-23T03:14:29.280Z,72.75
2023-05-23T03:16:59.741Z,72.86
2023-05-23T03:19:30.545Z,72.72
2023-05-23T03:22:01.779Z,72.90
2023-05-23T03:24:33.162Z,73.26
2023-05-23T03:27:06.902Z,73.38
2023-05-23T03:29:44.855Z,73.51
2023-05-23T03:32:15.227Z,74.23
2023-05-23T03:34:48.097Z,74.32
2023-05-23T03:37:16.903Z,74.45
2023-05-23T03:39:46.284Z,74.29
2023-05-23T03:42:15.985Z,74.27
2023-05-23T03:44:51.738Z,74.00
2023-05-23T03:47:22.349Z,74.17
2023-05-23T03:49:52.409Z,73.88
2023-05-23T03:52:41.709Z,73.55
2023-05-23T03:55:12.096Z,74.02
2023-05-23T03:57:45.969Z,74.22
2023-05-23T04:00:15.744Z,74.00
2023-05-23T04:05:30.620Z,74.08
2023-05-23T04:08:01.509Z,70.49
2023-05-23T04:10:30.872Z,71.59
2023-05-23T04:13:00.669Z,72.40
2023-05-23T04:15:29.478Z,72.89
2023-05-23T04:18:09.370Z,73.08
2023-05-23T04:20:38.612Z,73.02
2023-05-23T04:23:07.161Z,72.89
2023-05-23T04:25:39.836Z,72.97
2023-05-23T04:28:17.784Z,72.83
2023-05-23T04:30:49.602Z,72.55
2023-05-23T04:33:23.311Z,72.84
2023-05-23T04:35:52.715Z,72.92
2023-05-23T04:38:22.271Z,72.61
2023-05-23T04:40:52.894Z,72.74
2023-05-23T04:43:42.801Z,72.62
2023-05-23T04:46:26.593Z,72.50
2023-05-23T04:49:14.652Z,72.42
2023-05-23T04:51:43.464Z,72.23
2023-05-23T04:54:18.859Z,72.16
2023-05-23T04:56:47.553Z,72.28
2023-05-23T04:59:18.403Z,71.78
2023-05-23T05:01:47.068Z,72.03
2023-05-23T05:04:17.617Z,72.01
2023-05-23T05:06:48.207Z,72.15
2023-05-23T05:09:16.936Z,72.06
2023-05-23T05:11:45.821Z,71.91
2023-05-23T05:14:15.650Z,71.60
2023-05-23T05:16:46.180Z,71.03
2023-05-23T05:19:16.584Z,70.50
2023-05-23T05:21:45.352Z,70.44
2023-05-23T05:24:14.019Z,70.22
2023-05-23T05:26:44.087Z,69.45
2023-05-23T05:29:13.454Z,68.92
2023-05-23T05:31:43.558Z,67.96
2023-05-23T05:34:12.882Z,67.18
2023-05-23T05:36:48.009Z,66.59
2023-05-23T05:39:18.695Z,65.85
2023-05-23T05:41:47.310Z,65.24
2023-05-23T05:44:16.458Z,64.04
2023-05-23T05:46:47.006Z,63.09
2023-05-23T05:49:15.840Z,62.01
2023-05-23T05:51:48.209Z,61.02
2023-05-23T05:54:19.126Z,60.89
2023-05-23T05:56:48.525Z,60.96
2023-05-23T05:59:17.842Z,59.53
2023-05-23T06:01:46.474Z,57.41
2023-05-23T06:04:15.423Z,56.07
2023-05-23T06:06:45.305Z,54.48
2023-05-23T06:09:15.422Z,53.71
2023-05-23T06:11:44.782Z,52.70
2023-05-23T06:14:13.509Z,52.06
2023-05-23T06:16:45.940Z,51.61
2023-05-23T06:19:15.733Z,50.79
2023-05-23T06:21:44.442Z,49.86
2023-05-23T06:24:15.101Z,49.52
2023-05-23T06:26:43.674Z,48.47
2023-05-23T06:29:12.222Z,48.10
2023-05-23T06:31:41.046Z,48.29
2023-05-23T06:34:09.744Z,46.92
2023-05-23T06:36:38.307Z,46.71
2023-05-23T06:39:09.790Z,47.23
2023-05-23T06:41:40.730Z,46.58
2023-05-23T06:44:09.381Z,46.16
2023-05-23T06:46:42.248Z,45.99
2023-05-23T06:49:15.150Z,45.13
2023-05-23T06:51:46.441Z,44.88
2023-05-23T06:54:19.160Z,43.79
2023-05-23T06:56:49.520Z,44.16
2023-05-23T06:59:18.329Z,44.49
2023-05-23T07:01:47.362Z,44.97
2023-05-23T07:04:16.930Z,43.29
2023-05-23T07:06:45.646Z,43.21
2023-05-23T07:09:14.937Z,41.42
2023-05-23T07:11:43.608Z,41.79
2023-05-23T07:14:14.167Z,42.57
2023-05-23T07:16:44.448Z,42.41
2023-05-23T07:19:13.584Z,41.81
2023-05-23T07:21:53.396Z,42.34
2023-05-23T07:24:23.328Z,42.36
2023-05-23T07:26:54.722Z,42.37
2023-05-23T07:29:25.272Z,42.40
2023-05-23T07:31:55.448Z,42.22
2023-05-23T07:34:27.028Z,42.68
2023-05-23T07:36:58.043Z,42.28
2023-05-23T07:39:28.807Z,42.52
2023-05-23T07:41:59.528Z,42.07
2023-05-23T07:44:29.950Z,42.33
2023-05-23T07:46:59.005Z,43.09
2023-05-23T07:49:27.832Z,43.00
2023-05-23T07:51:56.868Z,42.88
2023-05-23T07:54:25.536Z,41.96
2023-05-23T07:56:57.915Z,41.89
2023-05-23T07:59:27.417Z,42.03
2023-05-23T08:01:57.940Z,43.06
2023-05-23T08:04:28.436Z,43.63
2023-05-23T08:07:04.910Z,44.12
2023-05-23T08:09:48.153Z,43.59
2023-05-23T08:12:20.422Z,44.23
2023-05-23T08:14:53.179Z,43.83
2023-05-23T08:17:27.276Z,43.79
2023-05-23T08:19:58.066Z,44.47
2023-05-23T08:22:26.719Z,43.41
2023-05-23T08:24:56.158Z,44.05
2023-05-23T08:27:25.621Z,42.85
2023-05-23T08:29:58.820Z,43.05
2023-05-23T08:32:29.286Z,43.16
2023-05-23T08:34:57.968Z,43.70
2023-05-23T08:37:26.542Z,43.88
2023-05-23T08:39:55.291Z,43.71
2023-05-23T08:42:41.747Z,43.62
2023-05-23T08:45:12.242Z,44.30
2023-05-23T08:47:44.093Z,44.71
2023-05-23T08:50:14.279Z,44.48
2023-05-23T08:52:46.977Z,45.32
2023-05-23T08:55:17.911Z,44.19
2023-05-23T08:57:48.439Z,44.74
2023-05-23T09:00:29.864Z,44.58
2023-05-23T09:03:00.488Z,45.23
2023-05-23T09:05:52.335Z,45.07
2023-05-23T09:08:21.877Z,44.91
2023-05-23T09:10:53.377Z,45.34
2023-05-23T09:13:23.090Z,44.29
2023-05-23T09:16:00.181Z,45.22
2023-05-23T09:18:36.887Z,45.97
2023-05-23T09:21:07.024Z,44.36
2023-05-23T09:23:40.770Z,45.60
2023-05-23T09:26:13.748Z,45.01
2023-05-23T09:28:47.254Z,44.49
2023-05-23T09:31:16.746Z,44.84
2023-05-23T09:33:48.499Z,44.83
2023-05-23T09:36:19.629Z,44.30
2023-05-23T09:38:50.274Z,44.79
2023-05-23T09:41:21.757Z,44.66
2023-05-23T09:43:54.340Z,43.76
2023-05-23T09:46:24.393Z,43.96
2023-05-23T09:48:55.990Z,43.64
2023-05-23T09:51:26.185Z,43.98
2023-05-23T09:53:57.152Z,43.89
2023-05-23T09:56:29.045Z,43.73
2023-05-23T09:59:01.847Z,42.78
2023-05-23T10:01:33.689Z,43.00
2023-05-23T10:04:06.521Z,43.06
2023-05-23T10:06:44.314Z,43.46
2023-05-23T10:09:18.897Z,43.49
2023-05-23T10:12:33.478Z,42.59
2023-05-23T10:15:05.191Z,42.99
2023-05-23T10:17:48.390Z,42.36
2023-05-23T10:20:22.460Z,42.30
2023-05-23T10:22:52.024Z,42.55
2023-05-23T10:25:20.879Z,42.39
2023-05-23T10:27:54.063Z,43.06
2023-05-23T10:30:29.325Z,43.36
2023-05-23T10:33:01.773Z,42.34
2023-05-23T10:35:44.274Z,42.27
2023-05-23T10:38:32.118Z,41.84
2023-05-23T10:41:10.983Z,41.61
2023-05-23T10:43:48.730Z,42.66
2023-05-23T10:46:22.255Z,43.29
2023-05-23T10:48:57.992Z,42.60
2023-05-23T10:51:41.549Z,41.59
2023-05-23T10:54:13.478Z,42.21
2023-05-23T10:56:42.268Z,42.91
2023-05-23T10:59:22.128Z,44.23
2023-05-23T11:01:53.638Z,42.14
2023-05-23T11:04:28.218Z,42.22
2023-05-23T11:06:59.625Z,41.65
2023-05-23T11:09:28.189Z,42.32
2023-05-23T11:12:05.629Z,42.02
2023-05-23T11:14:55.137Z,41.86
2023-05-23T11:17:33.452Z,42.45
2023-05-23T11:20:08.928Z,43.36
2023-05-23T11:22:40.310Z,42.19
2023-05-23T11:25:10.567Z,42.09
2023-05-23T11:27:40.741Z,41.12
2023-05-23T11:30:13.978Z,41.03
2023-05-23T11:32:44.132Z,42.06
2023-05-23T11:35:13.271Z,42.83
2023-05-23T11:37:45.930Z,42.96
2023-05-23T11:40:30.169Z,42.14
2023-05-23T11:42:59.423Z,41.84
2023-05-23T11:45:31.948Z,42.32
2023-05-23T11:48:07.413Z,41.72
2023-05-23T11:50:45.492Z,42.96
2023-05-23T11:53:20.862Z,42.41
2023-05-23T11:55:53.362Z,42.11
2023-05-23T11:58:23.028Z,42.97
2023-05-23T12:00:54.426Z,43.95
2023-05-23T12:03:24.276Z,41.72
2023-05-23T12:05:52.961Z,41.87
2023-05-23T12:08:24.001Z,40.55
2023-05-23T12:10:54.937Z,40.00
2023-05-23T12:13:26.419Z,40.12
2023-05-23T12:15:56.919Z,39.73
2023-05-23T12:18:27.062Z,42.47
2023-05-23T12:20:55.699Z,41.15
2023-05-23T12:23:31.806Z,40.01
2023-05-23T12:26:07.197Z,39.33
2023-05-23T12:28:37.355Z,40.13
2023-05-23T12:31:18.242Z,41.26
2023-05-23T12:33:49.687Z,39.77
2023-05-23T12:36:29.720Z,41.78
2023-05-23T12:39:06.517Z,40.95
2023-05-23T12:41:35.423Z,39.82
2023-05-23T12:44:04.412Z,38.62
2023-05-23T12:46:32.932Z,38.40
2023-05-23T12:49:01.563Z,38.56
2023-05-23T12:51:30.219Z,38.58
2023-05-23T12:53:58.813Z,37.59
2023-05-23T12:56:28.856Z,38.63
2023-05-23T12:58:57.406Z,37.35
2023-05-23T13:01:26.037Z,37.85
2023-05-23T13:03:54.716Z,36.99
2023-05-23T13:06:23.371Z,36.96
2023-05-23T13:08:54.670Z,37.68
2023-05-23T13:11:26.339Z,37.71
2023-05-23T13:13:56.346Z,39.08
2023-05-23T13:16:24.904Z,39.52
2023-05-23T13:18:54.026Z,38.89
2023-05-23T13:21:23.128Z,40.32
2023-05-23T13:23:52.210Z,39.76
2023-05-23T13:26:21.023Z,40.24
2023-05-23T13:28:49.656Z,38.28
2023-05-23T13:31:19.852Z,39.25
2023-05-23T13:33:48.549Z,39.27
2023-05-23T13:36:17.528Z,38.73
2023-05-23T13:38:46.175Z,39.38
2023-05-23T13:41:15.078Z,39.19
2023-05-23T13:43:43.765Z,39.53
2023-05-23T13:46:13.385Z,39.91
2023-05-23T13:48:43.396Z,40.99
2023-05-23T13:51:12.498Z,41.12
2023-05-23T13:53:41.412Z,41.39
2023-05-23T13:56:10.295Z,42.17
2023-05-23T13:58:38.933Z,43.58
2023-05-23T14:01:07.552Z,44.89
2023-05-23T14:03:36.178Z,44.25
2023-05-23T14:06:06.729Z,43.35
2023-05-23T14:08:36.852Z,43.73
2023-05-23T14:11:05.775Z,43.36
2023-05-23T14:13:34.458Z,42.95
2023-05-23T14:16:04.615Z,42.62
2023-05-23T14:18:33.212Z,41.80
2023-05-23T14:21:01.889Z,40.83
2023-05-23T14:23:32.116Z,41.25
2023-05-23T14:26:01.117Z,40.92
2023-05-23T14:28:29.727Z,40.34
2023-05-23T14:30:59.277Z,41.03
2023-05-23T14:33:27.946Z,42.48
2023-05-23T14:35:56.510Z,43.50
2023-05-23T14:38:27.248Z,44.46
2023-05-23T14:41:01.765Z,45.60
2023-05-23T14:43:30.722Z,46.95
2023-05-23T14:45:59.414Z,48.48
2023-05-23T14:48:29.256Z,49.86
2023-05-23T14:51:01.841Z,50.49
2023-05-23T14:53:30.841Z,52.41
2023-05-23T14:56:01.019Z,53.94
2023-05-23T14:58:29.682Z,54.53
2023-05-23T15:00:58.655Z,56.20
2023-05-23T15:03:27.902Z,58.32
2023-05-23T15:05:56.415Z,59.61
2023-05-23T15:08:25.985Z,60.19
2023-05-23T15:10:54.577Z,60.36
2023-05-23T15:13:24.637Z,60.86
2023-05-23T15:15:54.617Z,61.07
2023-05-23T15:18:39.002Z,61.56
2023-05-23T15:21:10.969Z,62.22
2023-05-23T15:23:39.689Z,63.31
2023-05-23T15:26:08.393Z,64.56
2023-05-23T15:28:38.392Z,65.19
2023-05-23T15:31:07.419Z,65.26
2023-05-23T15:33:36.032Z,66.12
2023-05-23T15:36:04.933Z,66.00
2023-05-23T15:38:33.549Z,66.20
2023-05-23T15:41:03.731Z,66.07
2023-05-23T15:43:32.836Z,65.95
2023-05-23T15:46:03.080Z,66.56
2023-05-23T15:48:34.454Z,66.97
2023-05-23T15:51:03.384Z,67.06
2023-05-23T15:53:40.038Z,67.76
2023-05-23T15:56:17.423Z,68.49
2023-05-23T15:58:45.937Z,68.17
2023-05-23T16:01:16.110Z,67.30
2023-05-23T16:03:44.910Z,67.08
2023-05-23T16:06:13.522Z,67.26
2023-05-23T16:08:42.232Z,67.39
2023-05-23T16:11:10.783Z,67.87
2023-05-23T16:13:40.303Z,67.75
2023-05-23T16:16:08.961Z,67.66
2023-05-23T16:18:39.977Z,67.49
2023-05-23T16:21:08.700Z,67.88
2023-05-23T16:23:37.308Z,67.94
2023-05-23T16:26:06.569Z,68.38
2023-05-23T16:28:35.241Z,68.41
2023-05-23T16:31:04.327Z,68.58
2023-05-23T16:33:33.915Z,68.53
2023-05-23T16:36:06.427Z,68.47
2023-05-23T16:38:35.174Z,68.60
2023-05-23T16:41:03.919Z,68.84
2023-05-23T16:43:32.591Z,69.30
2023-05-23T16:46:01.613Z,69.63
2023-05-23T16:48:30.870Z,69.37
2023-05-23T16:50:59.750Z,69.55
2023-05-23T16:53:29.780Z,68.76
2023-05-23T16:55:58.304Z,68.49
2023-05-23T16:58:27.835Z,67.95
2023-05-23T17:00:58.419Z,68.99
2023-05-23T17:03:29.433Z,69.40
2023-05-23T17:05:59.035Z,69.46
2023-05-23T17:08:30.085Z,69.65
2023-05-23T17:10:58.697Z,69.91
2023-05-23T17:13:28.302Z,69.70
2023-05-23T17:15:56.940Z,69.74
2023-05-23T17:18:27.514Z,69.83
2023-05-23T17:20:56.167Z,69.79
2023-05-23T17:23:24.923Z,70.33
2023-05-23T17:25:55.817Z,70.67
2023-05-23T17:28:24.471Z,70.80
2023-05-23T17:30:53.412Z,70.73
2023-05-23T17:33:22.155Z,70.75
2023-05-23T17:35:50.773Z,70.76
2023-05-23T17:38:20.520Z,71.36
2023-05-23T17:40:49.151Z,71.20
2023-05-23T17:43:20.255Z,70.97
2023-05-23T17:45:49.916Z,71.28
2023-05-23T17:48:18.598Z,71.50
2023-05-23T17:50:47.344Z,71.19
2023-05-23T17:53:16.131Z,70.97
2023-05-23T17:55:45.800Z,70.97
2023-05-23T17:58:14.393Z,71.26
2023-05-23T18:00:44.764Z,71.62
2023-05-23T18:03:13.664Z,71.38
2023-05-23T18:05:42.456Z,71.59
2023-05-23T18:08:11.121Z,71.81
2023-05-23T18:10:40.453Z,72.01
2023-05-23T18:13:10.304Z,72.15
2023-05-23T18:15:39.173Z,71.87
2023-05-23T18:18:09.577Z,72.15
2023-05-23T18:20:38.366Z,71.60
2023-05-23T18:23:07.654Z,71.58
2023-05-23T18:25:36.651Z,71.60
2023-05-23T18:28:05.334Z,71.43
2023-05-23T18:30:33.960Z,71.36
2023-05-23T18:33:02.714Z,71.72
2023-05-23T18:35:33.815Z,71.01
2023-05-23T18:38:02.448Z,71.35
2023-05-23T18:40:31.508Z,70.77
2023-05-23T18:43:00.056Z,70.42
2023-05-23T18:45:29.676Z,70.56
2023-05-23T18:47:58.341Z,70.76
2023-05-23T18:50:27.483Z,71.04
2023-05-23T18:52:57.552Z,71.38
2023-05-23T18:55:27.097Z,71.62
2023-05-23T18:57:55.698Z,71.29
2023-05-23T19:00:24.400Z,71.12
2023-05-23T19:02:53.132Z,71.10
2023-05-23T19:05:22.086Z,71.21
2023-05-23T19:07:50.751Z,71.52
2023-05-23T19:10:21.231Z,72.09
2023-05-23T19:12:50.925Z,72.31
2023-05-23T19:15:19.697Z,72.40
2023-05-23T19:17:49.373Z,72.51
2023-05-23T19:20:20.098Z,72.73
2023-05-23T19:22:51.707Z,72.58
2023-05-23T19:25:23.355Z,72.65
2023-05-23T19:27:52.598Z,72.76
2023-05-23T19:30:21.630Z,72.81
2023-05-23T19:32:50.224Z,73.04
2023-05-23T19:35:18.913Z,73.08
2023-05-23T19:37:49.351Z,72.58
2023-05-23T19:40:18.117Z,72.78
2023-05-23T19:42:48.487Z,72.85
2023-05-23T19:45:17.270Z,72.80
2023-05-23T19:47:46.503Z,72.56
2023-05-23T19:50:15.137Z,72.50
2023-05-23T19:52:43.786Z,72.65
2023-05-23T19:55:12.481Z,72.70
2023-05-23T19:57:41.285Z,73.13
2023-05-23T20:00:14.960Z,73.02
2023-05-23T20:02:44.726Z,73.28
2023-05-23T20:05:13.435Z,73.40
2023-05-23T20:07:42.026Z,73.51
2023-05-23T20:10:11.006Z,73.67
2023-05-23T20:12:39.684Z,73.47
2023-05-23T20:15:09.328Z,73.75
2023-05-23T20:17:40.504Z,73.96
2023-05-23T20:20:10.489Z,73.87
2023-05-23T20:22:39.436Z,73.81
2023-05-23T20:25:08.893Z,73.99
2023-05-23T20:27:37.675Z,74.05
2023-05-23T20:30:07.364Z,73.78
2023-05-23T20:32:37.074Z,73.53
2023-05-23T20:35:08.000Z,73.33
2023-05-23T20:37:36.671Z,73.37
2023-05-23T20:40:07.613Z,72.98
2023-05-23T20:42:37.014Z,73.47
2023-05-23T20:45:07.328Z,73.55
2023-05-23T20:47:37.573Z,73.57
2023-05-23T20:50:09.531Z,73.26
2023-05-23T20:52:39.379Z,73.08
2023-05-23T20:55:08.991Z,73.17
2023-05-23T20:57:38.773Z,73.21
2023-05-23T21:00:12.848Z,73.27
2023-05-23T21:02:42.343Z,73.30
2023-05-23T21:05:13.115Z,73.11
2023-05-23T21:07:41.779Z,73.40
2023-05-23T21:10:10.836Z,73.54
2023-05-23T21:12:39.491Z,73.46
2023-05-23T21:15:10.034Z,73.55
2023-05-23T21:17:38.918Z,73.39
2023-05-23T21:20:09.285Z,73.82
2023-05-23T21:22:39.457Z,73.99
2023-05-23T21:25:08.399Z,74.16
2023-05-23T21:27:37.993Z,73.99
2023-05-23T21:30:08.189Z,74.14
2023-05-23T21:32:37.024Z,73.78
2023-05-23T21:35:07.713Z,74.00
2023-05-23T21:37:39.019Z,73.87
2023-05-23T21:40:10.209Z,73.72
2023-05-23T21:42:39.007Z,73.93
2023-05-23T21:45:10.120Z,73.81
2023-05-23T21:47:38.904Z,74.12
2023-05-23T21:50:09.760Z,73.99
2023-05-23T21:52:40.714Z,73.96
2023-05-23T21:55:10.683Z,73.87
2023-05-23T21:57:49.075Z,74.01
2023-05-23T22:00:37.346Z,74.30
2023-05-23T22:03:06.515Z,74.34
2023-05-23T22:05:40.747Z,74.13
2023-05-23T22:08:12.118Z,74.34
2023-05-23T22:10:43.742Z,74.37
2023-05-23T22:13:14.711Z,74.16
2023-05-23T22:15:46.857Z,74.21
2023-05-23T22:18:16.604Z,74.09
2023-05-23T22:20:54.533Z,73.96
2023-05-23T22:23:26.725Z,74.16
2023-05-23T22:26:03.025Z,74.20
2023-05-23T22:28:32.101Z,73.82
2023-05-23T22:31:07.273Z,73.35
2023-05-23T22:33:36.033Z,73.35
2023-05-23T22:36:11.896Z,72.98
2023-05-23T22:38:43.054Z,73.09
2023-05-23T22:41:13.031Z,72.61
2023-05-23T22:43:42.872Z,73.05
2023-05-23T22:46:11.557Z,73.07
2023-05-23T22:48:43.021Z,73.16
2023-05-23T22:51:13.430Z,73.10
2023-05-23T22:53:53.021Z,72.69
2023-05-23T22:56:23.394Z,72.72
2023-05-23T22:58:57.001Z,72.62
2023-05-23T23:01:25.926Z,72.81
2023-05-23T23:03:54.750Z,72.71
2023-05-23T23:06:24.470Z,72.30
2023-05-23T23:08:55.690Z,72.64
2023-05-23T23:11:25.403Z,72.56
2023-05-23T23:13:54.209Z,72.68
2023-05-23T23:16:33.080Z,72.13
2023-05-23T23:19:03.835Z,72.31
2023-05-23T23:21:42.813Z,72.29
2023-05-23T23:24:14.749Z,72.60
2023-05-23T23:26:45.526Z,72.52
2023-05-23T23:29:15.542Z,72.96
2023-05-23T23:31:59.047Z,72.69
2023-05-23T23:34:29.034Z,72.89
2023-05-23T23:37:06.939Z,72.83
2023-05-23T23:39:38.315Z,72.76
2023-05-23T23:42:07.403Z,72.62
2023-05-23T23:44:37.003Z,72.98
2023-05-23T23:47:06.241Z,73.04
2023-05-23T23:49:36.015Z,73.00
2023-05-23T23:52:05.207Z,73.08
2023-05-23T23:54:35.099Z,73.02
2023-05-23T23:57:06.954Z,72.98
2023-05-23T23:59:36.705Z,73.42
